Flight Track Log - Related Links

Times and Time Zones

All times are in EDT time to prevent confusion due to time zone crossing. See the N762NC flight status page for this flight to view local times or setup timezone preferences in your user account.

Time Position Orientation Groundspeed Altitude Reporting Facility
EDT Latitude Longitude Course Direction KTS MPH feet Rate Location/Type
Mon 12:18:58 PM 33.6500 -84.3500 268° West 214 246 2,800  Level Atlanta TRACON
Mon 12:19:58 PM 33.6833 -84.2833 59° Northeast 233 268 5,700 2,299 Climbing Atlanta TRACON
Mon 12:21:00 PM 33.6957 -84.9698 280° West  Level FlightAware Approximate
Mon 12:21:45 PM 33.8022 -84.3014 353° North 278 320 9,200  Level Atlanta Center
Mon 12:22:00 PM 33.7154 -85.1075 280° West  Level FlightAware Approximate
Mon 12:22:45 PM 33.8083 -84.3864 275° West 281 323 10,400  Level Atlanta Center
Mon 12:23:00 PM 33.7156 -85.2470 268° West  Level FlightAware Approximate
Mon 12:23:45 PM 33.8142 -84.4989 274° West 315 362 11,500  Level Atlanta Center
Mon 12:24:00 PM 33.7108 -85.3865 268° West  Level FlightAware Approximate
Mon 12:24:45 PM 33.8219 -84.6339 274° West 356 410 13,000  Level Atlanta Center
Mon 12:25:45 PM 33.7983 -84.7636 258° West 388 447 14,300 1,650 Climbing Atlanta Center
Mon 12:26:45 PM 33.7725 -84.8986 257° West 400 460 16,300 1,900 Climbing Atlanta Center
Mon 12:27:45 PM 33.7506 -85.0331 259° West 407 468 18,100 1,950 Climbing Atlanta Center
Mon 12:28:45 PM 33.7306 -85.1653 260° West 412 474 20,200 2,000 Climbing Atlanta Center
Mon 12:29:45 PM 33.7147 -85.2925 262° West 406 467 22,100 1,600 Climbing Atlanta Center
Mon 12:30:45 PM 33.6989 -85.4222 262° West 406 467 23,400 1,200 Climbing Atlanta Center
Mon 12:31:45 PM 33.6972 -85.5569 269° West 406 467 24,500 1,050 Climbing Atlanta Center
Mon 12:32:45 PM 33.7103 -85.6794 277° West 406 467 25,500 1,100 Climbing Atlanta Center
Mon 12:33:45 PM 33.7186 -85.8219 274° West 406 467 26,700 1,100 Climbing Atlanta Center
Mon 12:34:45 PM 33.7292 -85.9622 275° West 406 467 27,700 650 Climbing Atlanta Center
Mon 12:35:45 PM 33.7436 -86.1047 277° West 419 482 28,000 150 Climbing Atlanta Center
Mon 12:36:45 PM 33.7494 -86.2522 273° West 432 497 28,000  Level Atlanta Center
Mon 12:37:45 PM 33.7631 -86.4103 276° West 458 527 28,000  Level Atlanta Center
Mon 12:38:45 PM 33.7789 -86.5606 277° West 464 534 28,000  Level Atlanta Center
Mon 12:39:45 PM 33.7925 -86.7133 276° West 464 534 28,000  Level Atlanta Center
Mon 12:40:45 PM 33.8078 -86.8689 277° West 464 534 28,000  Level Atlanta Center
Mon 12:43:05 PM 33.8408 -87.2211 277° West 479 551 28,000  Level Memphis Center
Mon 12:44:05 PM 33.8572 -87.3731 277° West 462 532 28,000  Level Memphis Center
Mon 12:45:05 PM 33.8772 -87.5225 279° West 470 541 28,000  Level Memphis Center
Mon 12:46:05 PM 33.8933 -87.6822 277° West 477 549 28,000  Level Memphis Center
Mon 12:47:05 PM 33.9111 -87.8367 278° West 477 549 28,000  Level Memphis Center
Mon 12:48:05 PM 33.9272 -88.0089 276° West 477 549 28,000  Level Memphis Center
Mon 12:49:05 PM 33.9444 -88.1639 278° West 477 549 28,000  Level Memphis Center
Mon 12:50:05 PM 33.9636 -88.3086 279° West 483 556 28,000  Level Memphis Center
Mon 12:51:05 PM 33.9808 -88.4658 278° West 483 556 28,000  Level Memphis Center
Mon 12:52:05 PM 34.0039 -88.6233 280° West 478 550 28,000  Level Memphis Center
Mon 12:53:05 PM 34.0353 -88.7781 284° West 478 550 28,000  Level Memphis Center
Mon 12:54:05 PM 34.0667 -88.9456 283° West 478 550 28,000  Level Memphis Center
Mon 12:55:05 PM 34.0975 -89.1031 283° West 478 550 28,000  Level Memphis Center
Mon 12:56:05 PM 34.1281 -89.2406 285° West 478 550 28,000  Level Memphis Center
Mon 12:57:05 PM 34.1606 -89.3958 284° West 478 550 28,000  Level Memphis Center
Mon 12:58:05 PM 34.1950 -89.5511 285° West 478 550 28,000  Level Memphis Center
Mon 12:59:05 PM 34.2294 -89.7117 285° West 483 556 28,000  Level Memphis Center
Mon 01:00:05 PM 34.2614 -89.8672 284° West 488 562 28,000 -50 Level Memphis Center
Mon 01:01:05 PM 34.2975 -90.0428 284° West 488 562 27,900 -450 Descending Memphis Center
Mon 01:02:05 PM 34.3292 -90.2011 284° West 488 562 27,100 -1,100 Descending Memphis Center
Mon 01:03:05 PM 34.3667 -90.3572 286° West 488 562 25,700 -1,300 Descending Memphis Center
Mon 01:04:05 PM 34.4022 -90.5108 286° West 483 556 24,500 -1,800 Descending Memphis Center
Mon 01:05:05 PM 34.4353 -90.6569 285° West 471 542 22,100 -2,600 Descending Memphis Center
Mon 01:06:05 PM 34.4308 -90.8003 268° West 440 506 19,300 -2,600 Descending Memphis Center
Mon 01:07:05 PM 34.4197 -90.9464 265° West 440 506 16,900 -2,350 Descending Memphis Center
Mon 01:08:05 PM 34.4086 -91.0669 264° West 428 493 14,600 -2,350 Descending Memphis Center
Mon 01:09:05 PM 34.3911 -91.1953 261° West 407 468 12,200 -2,000 Descending Memphis Center
Mon 01:10:05 PM 34.3797 -91.3186 264° West 384 442 10,600 -1,100 Descending Memphis Center
Mon 01:11:05 PM 34.3767 -91.4367 268° West 364 419 10,000 -353 Descending Memphis Center
Mon 01:11:47 PM 34.4053 -91.5253 291° West 338 389 10,000  Level Memphis Center
Mon 01:12:48 PM 34.4356 -91.6289 290° West 340 391 10,000 -590 Level Memphis Center
Mon 01:13:49 PM 34.4806 -91.7178 302° West 290 334 8,800 -1,279 Descending Memphis Center
Mon 01:14:50 PM 34.5403 -91.7867 316° Northwest 283 326 7,400 -1,241 Descending Memphis Center
Mon 01:15:45 PM 34.5939 -91.8431 319° Northwest 274 315 6,400 -1,448 Descending Memphis Center
Mon 01:16:46 PM 34.6494 -91.9022 319° Northwest 262 302 4,600 -1,537 Descending Memphis Center
Mon 01:17:46 PM 34.7028 -91.9636 317° Northwest 267 307 3,300 -843 Descending Memphis Center
Mon 01:18:47 PM 34.7586 -92.0203 320° Northwest 256 295 2,900 -621 Descending Memphis Center
Mon 01:19:42 PM 34.7764 -92.0942 286° West 249 287 2,100 -724 Descending Memphis Center
Mon 01:20:43 PM 34.7753 -92.1675 269° West 187 215 1,500 -730 Descending Memphis Center
Mon 01:21:37 PM 34.7497 -92.2022 228° Southwest 134 154 700 -889 Descending Memphis Center

Login

Don't have an account? Register now (free) for customized features, flight alerts, and more!